createdAt,value
2024-03-16T00:02:27.063Z,9.68
2024-03-16T00:04:58.676Z,9.67
2024-03-16T00:07:29.027Z,9.69
2024-03-16T00:10:00.758Z,9.69
2024-03-16T00:12:31.346Z,9.68
2024-03-16T00:15:03.081Z,9.68
2024-03-16T00:17:33.929Z,9.68
2024-03-16T00:20:08.932Z,9.68
2024-03-16T00:22:41.988Z,9.68
2024-03-16T00:25:12.949Z,9.68
2024-03-16T00:27:44.814Z,9.70
2024-03-16T00:30:15.484Z,9.72
2024-03-16T00:32:48.860Z,9.77
2024-03-16T00:35:19.564Z,9.79
2024-03-16T00:37:51.994Z,9.78
2024-03-16T00:40:22.575Z,9.78
2024-03-16T00:42:54.332Z,9.79
2024-03-16T00:45:24.780Z,9.80
2024-03-16T00:47:57.698Z,9.80
2024-03-16T00:50:28.580Z,9.82
2024-03-16T00:53:00.446Z,9.84
2024-03-16T00:55:32.246Z,9.83
2024-03-16T00:58:04.781Z,9.81
2024-03-16T01:00:35.184Z,9.79
2024-03-16T01:03:07.156Z,9.78
2024-03-16T01:05:37.445Z,9.76
2024-03-16T01:08:09.559Z,9.75
2024-03-16T01:10:39.961Z,9.76
2024-03-16T01:13:11.741Z,9.76
2024-03-16T01:15:42.166Z,9.76
2024-03-16T01:18:14.006Z,9.74
2024-03-16T01:20:45.425Z,9.72
2024-03-16T01:23:18.689Z,9.73
2024-03-16T01:25:48.952Z,9.77
2024-03-16T01:28:20.712Z,9.83
2024-03-16T01:30:51.194Z,9.88
2024-03-16T01:33:22.878Z,9.93
2024-03-16T01:35:55.599Z,9.97
2024-03-16T01:38:27.537Z,10.02
2024-03-16T01:40:58.060Z,10.05
2024-03-16T01:43:29.903Z,10.06
2024-03-16T01:46:00.240Z,10.03
2024-03-16T01:48:32.233Z,10.01
2024-03-16T01:51:04.897Z,9.97
2024-03-16T01:53:37.927Z,9.96
2024-03-16T01:56:08.260Z,9.92
2024-03-16T01:58:44.514Z,9.87
2024-03-16T02:01:17.237Z,9.81
2024-03-16T02:03:48.092Z,9.78
2024-03-16T02:06:19.922Z,9.78
2024-03-16T02:08:50.266Z,9.76
2024-03-16T02:11:23.115Z,9.73
2024-03-16T02:13:53.493Z,9.69
2024-03-16T02:16:25.264Z,9.66
2024-03-16T02:18:56.124Z,9.64
2024-03-16T02:21:27.956Z,9.62
2024-03-16T02:23:58.749Z,9.60
2024-03-16T02:26:30.799Z,9.57
2024-03-16T02:29:03.702Z,9.55
2024-03-16T02:31:37.715Z,9.51
2024-03-16T02:34:08.900Z,9.47
2024-03-16T02:36:40.885Z,9.41
2024-03-16T02:39:12.402Z,9.36
2024-03-16T02:41:44.244Z,9.32
2024-03-16T02:44:14.811Z,9.26
2024-03-16T02:46:47.047Z,9.23
2024-03-16T02:49:17.613Z,9.22
2024-03-16T02:51:49.652Z,9.21
2024-03-16T02:54:20.297Z,9.19
2024-03-16T02:56:52.965Z,9.17
2024-03-16T02:59:23.793Z,9.18
2024-03-16T03:01:57.065Z,9.19
2024-03-16T03:04:27.535Z,9.20
2024-03-16T03:06:59.340Z,9.19
2024-03-16T03:09:30.743Z,9.18
2024-03-16T03:12:02.505Z,9.16
2024-03-16T03:14:33.443Z,9.18
2024-03-16T03:17:05.201Z,9.19
2024-03-16T03:19:35.594Z,9.17
2024-03-16T03:22:07.214Z,9.13
2024-03-16T03:24:37.713Z,9.09
2024-03-16T03:27:09.379Z,9.06
2024-03-16T03:29:39.853Z,9.06
2024-03-16T03:32:11.472Z,9.07
2024-03-16T03:34:41.878Z,9.09
2024-03-16T03:37:13.698Z,9.08
2024-03-16T03:39:44.401Z,9.06
2024-03-16T03:42:16.146Z,9.01
2024-03-16T03:45:01.589Z,8.98
2024-03-16T03:47:51.414Z,8.97
2024-03-16T03:50:34.609Z,8.96
2024-03-16T03:53:07.104Z,8.96
2024-03-16T03:55:37.664Z,8.96
2024-03-16T03:58:09.910Z,8.99
2024-03-16T04:00:40.495Z,9.02
2024-03-16T04:03:12.272Z,9.02
2024-03-16T04:05:44.504Z,9.03
2024-03-16T04:08:16.280Z,9.05
2024-03-16T04:10:46.745Z,9.06
2024-03-16T04:13:18.719Z,9.08
2024-03-16T04:15:50.651Z,9.08
2024-03-16T04:18:22.221Z,9.10
2024-03-16T04:20:53.182Z,9.09
2024-03-16T04:23:24.713Z,9.05
2024-03-16T04:25:55.162Z,9.03
2024-03-16T04:28:26.707Z,9.01
2024-03-16T04:30:57.215Z,8.99
2024-03-16T04:33:28.990Z,8.95
2024-03-16T04:35:59.456Z,8.91
2024-03-16T04:38:31.037Z,8.86
2024-03-16T04:41:01.365Z,8.81
2024-03-16T04:43:32.997Z,8.74
2024-03-16T04:46:03.492Z,8.67
2024-03-16T04:48:35.037Z,8.59
2024-03-16T04:51:05.484Z,8.50
2024-03-16T04:53:37.087Z,8.44
2024-03-16T04:56:08.009Z,8.40
2024-03-16T04:58:39.665Z,8.37
2024-03-16T05:01:10.883Z,8.32
2024-03-16T05:03:42.548Z,8.26
2024-03-16T05:06:13.892Z,8.22
2024-03-16T05:08:46.495Z,8.20
2024-03-16T05:11:17.073Z,8.20
2024-03-16T05:13:48.917Z,8.22
2024-03-16T05:16:19.579Z,8.23
2024-03-16T05:18:51.334Z,8.23
2024-03-16T05:21:23.181Z,8.23
2024-03-16T05:23:54.961Z,8.24
2024-03-16T05:26:25.410Z,8.27
2024-03-16T05:28:57.236Z,8.30
2024-03-16T05:31:28.755Z,8.33
2024-03-16T05:34:00.669Z,8.39
2024-03-16T05:36:31.195Z,8.45
2024-03-16T05:39:03.971Z,8.50
2024-03-16T05:41:34.527Z,8.56
2024-03-16T05:44:06.245Z,8.64
2024-03-16T05:46:36.980Z,8.76
2024-03-16T05:49:09.006Z,8.94
2024-03-16T05:51:40.006Z,9.26
2024-03-16T05:54:11.746Z,9.61
2024-03-16T05:56:42.248Z,9.88
2024-03-16T05:59:14.395Z,10.00
2024-03-16T06:01:46.686Z,10.09
2024-03-16T06:04:21.180Z,10.19
2024-03-16T06:06:53.769Z,10.28
2024-03-16T06:09:24.360Z,10.33
2024-03-16T06:11:56.291Z,10.40
2024-03-16T06:14:27.280Z,10.52
2024-03-16T06:16:58.898Z,10.67
2024-03-16T06:19:29.430Z,10.83
2024-03-16T06:22:03.243Z,11.03
2024-03-16T06:24:34.117Z,11.26
2024-03-16T06:27:07.251Z,11.49
2024-03-16T06:29:37.732Z,11.78
2024-03-16T06:32:10.346Z,12.09
2024-03-16T06:34:40.878Z,12.33
2024-03-16T06:37:12.700Z,12.47
2024-03-16T06:39:43.900Z,12.56
2024-03-16T06:42:15.683Z,12.62
2024-03-16T06:44:46.143Z,12.65
2024-03-16T06:47:17.866Z,12.67
2024-03-16T06:49:48.433Z,12.70
2024-03-16T06:52:25.863Z,12.73
2024-03-16T06:54:57.751Z,12.77
2024-03-16T06:57:28.317Z,12.80
2024-03-16T07:00:00.170Z,12.84
2024-03-16T07:02:30.827Z,12.87
2024-03-16T07:05:02.855Z,12.88
2024-03-16T07:07:33.883Z,12.91
2024-03-16T07:10:08.443Z,12.96
2024-03-16T07:12:41.775Z,13.03
2024-03-16T07:15:16.604Z,13.12
2024-03-16T07:17:48.424Z,13.22
2024-03-16T07:20:19.117Z,13.37
2024-03-16T07:22:51.501Z,13.52
2024-03-16T07:25:22.708Z,13.64
2024-03-16T07:27:54.711Z,13.74
2024-03-16T07:30:26.584Z,13.85
2024-03-16T07:32:58.414Z,13.97
2024-03-16T07:35:29.402Z,14.09
2024-03-16T07:38:01.619Z,14.24
2024-03-16T07:40:33.205Z,14.36
2024-03-16T07:43:05.143Z,14.44
2024-03-16T07:45:41.261Z,14.53
2024-03-16T07:48:13.757Z,14.60
2024-03-16T07:50:44.301Z,14.65
2024-03-16T07:53:15.899Z,14.69
2024-03-16T07:55:46.493Z,14.74
2024-03-16T07:58:18.050Z,14.80
2024-03-16T08:00:48.796Z,14.85
2024-03-16T08:03:20.409Z,14.91
2024-03-16T08:05:51.457Z,14.98
2024-03-16T08:08:23.996Z,15.07
2024-03-16T08:10:56.108Z,15.17
2024-03-16T08:13:27.796Z,15.29
2024-03-16T08:15:59.541Z,15.40
2024-03-16T08:18:31.368Z,15.54
2024-03-16T08:21:03.527Z,15.70
2024-03-16T08:23:35.890Z,15.89
2024-03-16T08:26:07.120Z,16.05
2024-03-16T08:28:40.572Z,16.22
2024-03-16T08:31:11.208Z,16.34
2024-03-16T08:33:42.820Z,16.45
2024-03-16T08:36:13.348Z,16.54
2024-03-16T08:38:45.102Z,16.57
2024-03-16T08:41:15.571Z,16.60
2024-03-16T08:43:47.601Z,16.60
2024-03-16T08:46:18.548Z,16.61
2024-03-16T08:48:50.550Z,16.67
2024-03-16T08:51:21.366Z,16.75
2024-03-16T08:53:54.485Z,16.78
2024-03-16T08:56:29.345Z,16.84
2024-03-16T08:59:04.141Z,16.90
2024-03-16T09:01:37.555Z,16.94
2024-03-16T09:04:09.624Z,17.01
2024-03-16T09:06:42.206Z,17.07
2024-03-16T09:09:12.917Z,17.09
2024-03-16T09:11:45.021Z,17.10
2024-03-16T09:14:16.318Z,17.12
2024-03-16T09:16:48.047Z,17.14
2024-03-16T09:19:18.387Z,17.17
2024-03-16T09:21:50.671Z,17.19
2024-03-16T09:24:21.202Z,17.17
2024-03-16T09:26:53.096Z,17.16
2024-03-16T09:29:23.554Z,17.17
2024-03-16T09:31:55.540Z,17.18
2024-03-16T09:34:26.342Z,17.19
2024-03-16T09:36:58.154Z,17.18
2024-03-16T09:39:28.623Z,17.19
2024-03-16T09:42:00.533Z,17.23
2024-03-16T09:44:30.973Z,17.29
2024-03-16T09:47:04.896Z,17.31
2024-03-16T09:49:36.661Z,17.35
2024-03-16T09:52:11.981Z,17.40
2024-03-16T09:54:44.390Z,17.48
2024-03-16T09:57:15.714Z,17.55
2024-03-16T09:59:49.450Z,17.52
2024-03-16T10:02:24.832Z,17.46
2024-03-16T10:04:56.386Z,17.44
2024-03-16T10:07:26.996Z,17.50
2024-03-16T10:09:58.524Z,17.64
2024-03-16T10:12:29.175Z,17.80
2024-03-16T10:15:24.231Z,17.88
2024-03-16T10:17:55.775Z,17.87
2024-03-16T10:20:28.380Z,17.88
2024-03-16T10:23:00.032Z,17.88
2024-03-16T10:25:32.011Z,17.86
2024-03-16T10:28:03.878Z,17.80
2024-03-16T10:30:34.451Z,17.73
2024-03-16T10:33:07.322Z,17.69
2024-03-16T10:35:40.339Z,17.62
2024-03-16T10:38:15.852Z,17.53
2024-03-16T10:40:47.732Z,17.43
2024-03-16T10:43:18.060Z,17.33
2024-03-16T10:45:49.766Z,17.26
2024-03-16T10:48:20.226Z,17.19
2024-03-16T10:50:54.670Z,17.12
2024-03-16T10:53:28.030Z,17.01
2024-03-16T10:55:59.012Z,16.94
2024-03-16T10:58:30.962Z,16.90
2024-03-16T11:01:17.068Z,16.78
2024-03-16T11:03:52.933Z,16.65
2024-03-16T11:06:24.745Z,16.53
2024-03-16T11:08:55.463Z,16.43
2024-03-16T11:11:28.297Z,16.36
2024-03-16T11:14:01.730Z,16.31
2024-03-16T11:16:36.635Z,16.27
2024-03-16T11:19:09.192Z,16.23
2024-03-16T11:21:39.868Z,16.18
2024-03-16T11:24:15.016Z,16.18
2024-03-16T11:26:47.812Z,16.30
2024-03-16T11:29:20.166Z,16.46
2024-03-16T11:31:54.911Z,16.59
2024-03-16T11:34:28.084Z,16.73
2024-03-16T11:36:59.788Z,16.90
2024-03-16T11:39:33.223Z,17.08
2024-03-16T11:42:07.338Z,17.25
2024-03-16T11:44:39.065Z,17.41
2024-03-16T11:47:10.680Z,17.52
2024-03-16T11:49:42.477Z,17.59
2024-03-16T11:52:12.889Z,17.61
2024-03-16T11:54:49.236Z,17.64
2024-03-16T11:57:22.485Z,17.72
2024-03-16T11:59:52.937Z,17.80
2024-03-16T12:02:24.573Z,17.87
2024-03-16T12:04:55.500Z,17.94
2024-03-16T12:07:27.113Z,18.04
2024-03-16T12:09:57.684Z,18.11
2024-03-16T12:12:29.257Z,18.22
2024-03-16T12:15:16.195Z,18.30
2024-03-16T12:17:49.853Z,18.35
2024-03-16T12:20:21.398Z,18.36
2024-03-16T12:22:56.474Z,18.39
2024-03-16T12:25:29.045Z,18.39
2024-03-16T12:28:03.419Z,18.35
2024-03-16T12:30:35.802Z,18.31
2024-03-16T12:33:10.613Z,18.34
2024-03-16T12:35:42.233Z,18.42
2024-03-16T12:38:12.492Z,18.47
2024-03-16T12:40:44.693Z,18.54
2024-03-16T12:43:15.069Z,18.67
2024-03-16T12:45:46.742Z,18.75
2024-03-16T12:48:17.645Z,18.73
2024-03-16T12:50:49.298Z,18.59
2024-03-16T12:53:20.265Z,18.44
2024-03-16T12:55:52.193Z,18.33
2024-03-16T12:58:22.570Z,18.24
2024-03-16T13:00:54.341Z,18.15
2024-03-16T13:03:24.944Z,18.08
2024-03-16T13:05:56.702Z,18.09
2024-03-16T13:08:27.560Z,18.13
2024-03-16T13:10:59.461Z,18.14
2024-03-16T13:13:31.681Z,18.15
2024-03-16T13:16:03.960Z,18.16
2024-03-16T13:18:34.752Z,18.18
2024-03-16T13:21:09.014Z,18.16
2024-03-16T13:23:39.617Z,18.11
2024-03-16T13:26:13.663Z,18.07
2024-03-16T13:28:44.051Z,18.06
2024-03-16T13:31:16.182Z,18.06
2024-03-16T13:33:46.342Z,18.05
2024-03-16T13:36:17.960Z,18.04
2024-03-16T13:38:48.084Z,18.00
2024-03-16T13:41:19.735Z,17.94
2024-03-16T13:43:49.912Z,17.95
2024-03-16T13:46:21.632Z,17.97
2024-03-16T13:48:59.561Z,17.96
2024-03-16T13:51:31.494Z,17.90
2024-03-16T13:54:01.797Z,17.85
2024-03-16T13:56:33.899Z,17.81
2024-03-16T13:59:04.315Z,17.76
2024-03-16T14:01:35.990Z,17.73
2024-03-16T14:04:06.424Z,17.68
2024-03-16T14:06:38.117Z,17.55
2024-03-16T14:09:09.870Z,17.41
2024-03-16T14:11:42.225Z,17.19
2024-03-16T14:14:12.449Z,17.08
2024-03-16T14:16:44.207Z,17.06
2024-03-16T14:19:14.798Z,17.08
2024-03-16T14:21:46.455Z,17.11
2024-03-16T14:24:16.710Z,17.13
2024-03-16T14:26:48.154Z,17.12
2024-03-16T14:29:18.511Z,17.14
2024-03-16T14:31:50.096Z,17.16
2024-03-16T14:34:20.385Z,17.18
2024-03-16T14:36:51.975Z,17.17
2024-03-16T14:39:22.378Z,17.18
2024-03-16T14:41:53.965Z,17.18
2024-03-16T14:44:24.907Z,17.20
2024-03-16T14:46:56.574Z,17.17
2024-03-16T14:49:29.588Z,17.11
2024-03-16T14:52:01.012Z,17.04
2024-03-16T14:54:31.371Z,16.97
2024-03-16T14:57:03.555Z,16.89
2024-03-16T14:59:34.262Z,16.77
2024-03-16T15:02:10.665Z,16.66
2024-03-16T15:04:42.753Z,16.57
2024-03-16T15:07:13.344Z,16.42
2024-03-16T15:09:44.983Z,16.22
2024-03-16T15:12:15.313Z,15.99
2024-03-16T15:14:46.775Z,15.81
2024-03-16T15:17:17.889Z,15.63
2024-03-16T15:19:49.506Z,15.49
2024-03-16T15:22:19.976Z,15.40
2024-03-16T15:24:51.755Z,15.31
2024-03-16T15:27:24.881Z,15.25
2024-03-16T15:29:56.908Z,15.22
2024-03-16T15:32:27.317Z,15.19
2024-03-16T15:34:58.827Z,15.18
2024-03-16T15:37:29.286Z,15.17
2024-03-16T15:40:00.952Z,15.16
2024-03-16T15:42:31.522Z,15.18
2024-03-16T15:45:03.628Z,15.24
2024-03-16T15:47:34.810Z,15.25
2024-03-16T15:50:07.251Z,15.22
2024-03-16T15:52:37.586Z,15.12
2024-03-16T15:55:09.495Z,15.01
2024-03-16T15:57:39.803Z,14.87
2024-03-16T16:00:13.320Z,14.73
2024-03-16T16:02:43.562Z,14.59
2024-03-16T16:05:16.525Z,14.45
2024-03-16T16:07:46.864Z,14.33
2024-03-16T16:10:19.140Z,14.22
2024-03-16T16:12:49.539Z,14.13
2024-03-16T16:15:21.187Z,14.01
2024-03-16T16:17:51.652Z,13.89
2024-03-16T16:20:23.179Z,13.76
2024-03-16T16:22:54.523Z,13.62
2024-03-16T16:25:30.622Z,13.49
2024-03-16T16:28:03.634Z,13.35
2024-03-16T16:30:33.838Z,13.20
2024-03-16T16:33:08.713Z,13.03
2024-03-16T16:35:42.043Z,12.88
2024-03-16T16:38:12.494Z,12.74
2024-03-16T16:40:49.339Z,12.59
2024-03-16T16:43:21.869Z,12.46
2024-03-16T16:45:53.884Z,12.35
2024-03-16T16:48:25.598Z,12.25
2024-03-16T16:50:58.673Z,12.15
2024-03-16T16:53:32.920Z,12.07
2024-03-16T16:56:03.123Z,12.00
2024-03-16T16:58:35.519Z,11.97
2024-03-16T17:01:05.857Z,11.93
2024-03-16T17:03:37.322Z,11.89
2024-03-16T17:06:08.437Z,11.85
2024-03-16T17:08:40.156Z,11.81
2024-03-16T17:11:13.831Z,11.74
2024-03-16T17:13:46.945Z,11.67
2024-03-16T17:16:17.381Z,11.59
2024-03-16T17:18:49.085Z,11.53
2024-03-16T17:21:19.610Z,11.47
2024-03-16T17:23:51.722Z,11.41
2024-03-16T17:26:24.325Z,11.35
2024-03-16T17:28:55.941Z,11.30
2024-03-16T17:31:26.420Z,11.26
2024-03-16T17:33:57.987Z,11.21
2024-03-16T17:36:28.380Z,11.16
2024-03-16T17:39:00.195Z,11.09
2024-03-16T17:41:30.702Z,11.03
2024-03-16T17:44:02.857Z,10.97
2024-03-16T17:46:32.964Z,10.93
2024-03-16T17:49:04.715Z,10.89
2024-03-16T17:51:35.967Z,10.86
2024-03-16T17:54:08.993Z,10.83
2024-03-16T17:56:39.287Z,10.79
2024-03-16T17:59:12.462Z,10.74
2024-03-16T18:01:43.117Z,10.68
2024-03-16T18:04:15.154Z,10.62
2024-03-16T18:06:46.498Z,10.56
2024-03-16T18:09:21.742Z,10.49
2024-03-16T18:11:55.762Z,10.41
2024-03-16T18:14:26.028Z,10.36
2024-03-16T18:16:57.402Z,10.29
2024-03-16T18:19:27.808Z,10.23
2024-03-16T18:21:59.347Z,10.19
2024-03-16T18:24:29.865Z,10.15
2024-03-16T18:27:01.267Z,10.10
2024-03-16T18:29:31.543Z,10.06
2024-03-16T18:32:02.961Z,10.03
2024-03-16T18:34:33.302Z,9.98
2024-03-16T18:37:04.851Z,9.94
2024-03-16T18:39:36.590Z,9.94
2024-03-16T18:42:08.632Z,9.98
2024-03-16T18:44:39.014Z,10.04
2024-03-16T18:47:10.605Z,10.11
2024-03-16T18:49:40.895Z,10.20
2024-03-16T18:52:12.408Z,10.28
2024-03-16T18:54:43.278Z,10.34
2024-03-16T18:57:19.396Z,10.40
2024-03-16T18:59:51.881Z,10.44
2024-03-16T19:02:22.506Z,10.47
2024-03-16T19:04:54.020Z,10.51
2024-03-16T19:07:25.989Z,10.56
2024-03-16T19:09:57.635Z,10.60
2024-03-16T19:12:29.499Z,10.65
2024-03-16T19:15:02.539Z,10.68
2024-03-16T19:17:32.908Z,10.71
2024-03-16T19:20:06.243Z,10.74
2024-03-16T19:22:40.359Z,10.75
2024-03-16T19:25:11.923Z,10.76
2024-03-16T19:27:42.311Z,10.75
2024-03-16T19:30:16.757Z,10.74
2024-03-16T19:32:49.172Z,10.74
2024-03-16T19:35:19.506Z,10.74
2024-03-16T19:37:53.268Z,10.73
2024-03-16T19:40:23.780Z,10.68
2024-03-16T19:42:55.859Z,10.61
2024-03-16T19:45:26.372Z,10.52
2024-03-16T19:47:57.938Z,10.41
2024-03-16T19:50:28.103Z,10.35
2024-03-16T19:52:59.709Z,10.30
2024-03-16T19:55:30.158Z,10.24
2024-03-16T19:58:01.733Z,10.16
2024-03-16T20:00:33.282Z,10.09
2024-03-16T20:03:05.284Z,10.00
2024-03-16T20:05:35.573Z,9.91
2024-03-16T20:08:07.358Z,9.85
2024-03-16T20:10:37.661Z,9.81
2024-03-16T20:13:09.279Z,9.80
2024-03-16T20:15:39.680Z,9.76
2024-03-16T20:18:11.321Z,9.71
2024-03-16T20:20:46.388Z,9.67
2024-03-16T20:23:19.207Z,9.63
2024-03-16T20:25:49.761Z,9.59
2024-03-16T20:28:20.599Z,9.58
2024-03-16T20:30:51.034Z,9.55
2024-03-16T20:33:22.418Z,9.53
2024-03-16T20:35:53.107Z,9.49
2024-03-16T20:38:24.542Z,9.47
2024-03-16T20:40:55.522Z,9.45
2024-03-16T20:43:26.979Z,9.43
2024-03-16T20:46:00.469Z,9.39
2024-03-16T20:48:31.988Z,9.33
2024-03-16T20:51:07.581Z,9.27
2024-03-16T20:53:39.603Z,9.24
2024-03-16T20:56:11.388Z,9.24
2024-03-16T20:58:44.433Z,9.25
2024-03-16T21:01:16.028Z,9.27
2024-03-16T21:03:48.617Z,9.25
2024-03-16T21:06:19.151Z,9.24
2024-03-16T21:08:50.846Z,9.22
2024-03-16T21:11:25.595Z,9.19
2024-03-16T21:13:57.244Z,9.11
2024-03-16T21:16:27.546Z,9.04
2024-03-16T21:18:59.158Z,8.93
2024-03-16T21:21:29.759Z,8.83
2024-03-16T21:24:01.398Z,8.72
2024-03-16T21:26:31.747Z,8.63
2024-03-16T21:29:05.051Z,8.56
2024-03-16T21:31:37.708Z,8.49
2024-03-16T21:34:10.385Z,8.45
2024-03-16T21:36:43.689Z,8.41
2024-03-16T21:39:15.954Z,8.36
2024-03-16T21:41:46.525Z,8.30
2024-03-16T21:44:18.158Z,8.25
2024-03-16T21:46:48.471Z,8.20
2024-03-16T21:49:19.942Z,8.17
2024-03-16T21:51:53.090Z,8.14
2024-03-16T21:54:26.095Z,8.09
2024-03-16T21:56:56.369Z,8.03
2024-03-16T21:59:27.920Z,7.97
2024-03-16T22:01:58.752Z,7.93
2024-03-16T22:04:30.439Z,7.89
2024-03-16T22:07:02.838Z,7.87
2024-03-16T22:09:34.442Z,7.83
2024-03-16T22:12:05.438Z,7.80
2024-03-16T22:14:36.996Z,7.76
2024-03-16T22:17:07.820Z,7.75
2024-03-16T22:19:40.202Z,7.74
2024-03-16T22:22:11.350Z,7.72
2024-03-16T22:24:42.914Z,7.70
2024-03-16T22:27:14.062Z,7.67
2024-03-16T22:29:45.737Z,7.65
2024-03-16T22:32:16.026Z,7.62
2024-03-16T22:34:47.762Z,7.61
2024-03-16T22:37:19.460Z,7.60
2024-03-16T22:39:50.885Z,7.58
2024-03-16T22:42:21.581Z,7.56
2024-03-16T22:44:52.971Z,7.55
2024-03-16T22:47:23.366Z,7.51
2024-03-16T22:49:54.781Z,7.48
2024-03-16T22:52:25.474Z,7.45
2024-03-16T22:55:01.491Z,7.42
2024-03-16T22:57:34.168Z,7.40
2024-03-16T23:00:20.673Z,7.37
2024-03-16T23:02:52.608Z,7.33
2024-03-16T23:05:25.797Z,7.28
2024-03-16T23:07:58.840Z,7.21
2024-03-16T23:10:32.113Z,7.16
2024-03-16T23:13:04.129Z,7.13
2024-03-16T23:15:36.435Z,7.08
2024-03-16T23:18:08.805Z,7.03
2024-03-16T23:20:39.116Z,6.99
2024-03-16T23:23:11.267Z,6.96
2024-03-16T23:25:45.516Z,6.92
2024-03-16T23:28:17.134Z,6.87
2024-03-16T23:30:57.164Z,6.83
2024-03-16T23:33:29.897Z,6.79
2024-03-16T23:36:02.173Z,6.75
2024-03-16T23:38:33.764Z,6.72
2024-03-16T23:41:04.633Z,6.67
2024-03-16T23:43:36.082Z,6.61
2024-03-16T23:46:10.353Z,6.54
2024-03-16T23:48:42.039Z,6.49
2024-03-16T23:51:12.474Z,6.43
2024-03-16T23:53:47.522Z,6.39
2024-03-16T23:56:20.256Z,6.37
2024-03-16T23:58:51.701Z,6.33
